Time;durP1;ratioP1;P1;durP2;ratioP2;P2;SDS_P1;SDS_P2;PMS_P1;PMS_P2;Temp;Humidity;BMP_temperature;BMP_pressure;BME280_temperature;BME280_humidity;BME280_pressure;Samples;Min_cycle;Max_cycle;Signal;HPM_P1;HPM_P2
2023/08/18 00:01:40;;;;;;;24.70;15.97;;;17.70;99.90;;;;;;5066747;28;20219;-81
2023/08/18 00:04:06;;;;;;;21.97;16.13;;;17.80;99.90;;;;;;5069340;28;20182;-81
2023/08/18 00:06:31;;;;;;;23.23;15.83;;;17.70;99.90;;;;;;5056046;28;20182;-79
2023/08/18 00:08:57;;;;;;;22.83;16.37;;;17.70;99.90;;;;;;5050351;28;20180;-81
2023/08/18 00:11:22;;;;;;;23.37;16.80;;;17.60;99.90;;;;;;5053132;28;20188;-80
2023/08/18 00:13:48;;;;;;;23.40;16.57;;;17.70;99.90;;;;;;5059280;28;20247;-79
2023/08/18 00:16:14;;;;;;;24.47;17.00;;;17.70;99.90;;;;;;5072963;28;20191;-80
2023/08/18 00:18:39;;;;;;;25.47;16.47;;;17.70;99.90;;;;;;5077746;28;20219;-79
2023/08/18 00:21:05;;;;;;;25.93;17.53;;;17.60;99.90;;;;;;5077973;28;20205;-79
2023/08/18 00:23:30;;;;;;;23.93;16.23;;;17.70;99.90;;;;;;5078014;28;20191;-80
2023/08/18 00:25:56;;;;;;;24.63;16.40;;;17.70;99.90;;;;;;5078623;28;20202;-80
2023/08/18 00:28:21;;;;;;;24.17;16.17;;;17.80;99.90;;;;;;5066544;28;20211;-80
2023/08/18 00:30:47;;;;;;;26.37;16.40;;;17.50;99.90;;;;;;5062612;28;20580;-79
2023/08/18 00:33:13;;;;;;;27.63;16.07;;;17.70;99.90;;;;;;5065985;28;20553;-80
2023/08/18 00:35:38;;;;;;;25.03;16.93;;;17.80;99.90;;;;;;5065569;28;20172;-79
2023/08/18 00:38:04;;;;;;;23.40;16.13;;;17.70;99.90;;;;;;5065522;28;20206;-79
2023/08/18 00:40:29;;;;;;;21.20;15.33;;;17.70;99.90;;;;;;5066249;28;20176;-81
2023/08/18 00:42:55;;;;;;;22.13;15.23;;;17.50;99.90;;;;;;5066361;28;20666;-80
2023/08/18 00:45:21;;;;;;;28.87;16.03;;;17.60;99.90;;;;;;5065994;28;20236;-80
2023/08/18 00:47:48;;;;;;;29.73;16.93;;;17.60;99.90;;;;;;5049359;28;20187;-80
2023/08/18 00:50:16;;;;;;;26.97;16.40;;;17.60;99.90;;;;;;5044295;28;20271;-79
2023/08/18 00:52:43;;;;;;;24.53;16.70;;;17.50;99.90;;;;;;5042523;28;20181;-80
2023/08/18 00:55:10;;;;;;;25.53;17.07;;;17.70;99.90;;;;;;5045425;28;20172;-80
2023/08/18 00:57:37;;;;;;;29.50;16.73;;;17.60;99.90;;;;;;5042507;28;20207;-79
2023/08/18 01:00:03;;;;;;;32.80;19.40;;;17.60;99.90;;;;;;5043787;28;20165;-79
2023/08/18 01:02:28;;;;;;;33.63;18.40;;;17.60;99.90;;;;;;5045035;28;20670;-81
2023/08/18 01:05:00;;;;;;;30.17;18.43;;;17.80;99.90;;;;;;5058686;28;20204;-80
2023/08/18 01:07:26;;;;;;;27.33;17.40;;;17.60;99.90;;;;;;5046750;28;20163;-79
2023/08/18 01:09:52;;;;;;;29.73;18.23;;;17.60;99.90;;;;;;5046126;28;20232;-80
2023/08/18 01:12:17;;;;;;;32.30;18.73;;;17.60;99.90;;;;;;5046287;28;20733;-80
2023/08/18 01:15:03;;;;;;;31.97;17.47;;;17.60;99.90;;;;;;5047313;28;20235;-80
2023/08/18 01:17:37;;;;;;;34.73;19.90;;;17.60;99.90;;;;;;5046283;28;20283;-80
2023/08/18 01:20:04;;;;;;;29.23;18.00;;;17.50;99.90;;;;;;5063153;28;20167;-80
2023/08/18 01:22:31;;;;;;;33.40;22.00;;;17.60;99.90;;;;;;5064099;28;20213;-80
2023/08/18 01:25:00;;;;;;;32.23;20.70;;;17.60;99.90;;;;;;5064920;28;20581;-80
2023/08/18 01:27:26;;;;;;;30.00;20.17;;;17.60;99.90;;;;;;5065045;28;20183;-80
2023/08/18 01:29:51;;;;;;;27.73;20.37;;;17.60;99.90;;;;;;5065259;28;20198;-79
2023/08/18 01:32:18;;;;;;;33.23;20.37;;;17.50;99.90;;;;;;5065697;28;20229;-80
2023/08/18 01:34:45;;;;;;;33.50;19.27;;;17.60;99.90;;;;;;5064985;28;20218;-80
2023/08/18 01:37:12;;;;;;;34.63;19.40;;;17.60;99.90;;;;;;5065351;28;20253;-80
2023/08/18 01:39:37;;;;;;;31.20;19.07;;;17.60;99.90;;;;;;5065639;28;20586;-80
2023/08/18 01:42:04;;;;;;;30.13;20.63;;;17.70;99.90;;;;;;5063609;28;20191;-80
2023/08/18 01:44:29;;;;;;;31.20;19.73;;;17.70;99.90;;;;;;5063525;28;20172;-80
2023/08/18 01:46:55;;;;;;;36.00;19.87;;;17.70;99.90;;;;;;5060872;28;20201;-80
2023/08/18 01:49:21;;;;;;;29.87;18.47;;;17.70;99.90;;;;;;5065420;28;20185;-79
2023/08/18 01:51:46;;;;;;;30.27;18.43;;;17.60;99.90;;;;;;5062788;28;20252;-80
2023/08/18 01:54:13;;;;;;;30.67;19.80;;;17.70;99.90;;;;;;5065248;28;20176;-80
2023/08/18 01:56:38;;;;;;;37.43;21.00;;;17.70;99.90;;;;;;5064588;28;20190;-79
2023/08/18 01:59:04;;;;;;;29.37;19.63;;;17.70;99.90;;;;;;5057753;28;20184;-79
2023/08/18 02:01:30;;;;;;;31.80;20.60;;;17.60;99.90;;;;;;5044346;28;20210;-79
2023/08/18 02:03:55;;;;;;;34.83;20.70;;;17.70;99.90;;;;;;5043428;28;20679;-81
2023/08/18 02:06:21;;;;;;;27.93;19.17;;;17.70;99.90;;;;;;5043824;28;20164;-80
2023/08/18 02:08:46;;;;;;;31.93;20.67;;;17.70;99.90;;;;;;5043636;28;20267;-80
2023/08/18 02:11:12;;;;;;;28.57;19.43;;;17.60;99.90;;;;;;5044901;28;20195;-80
2023/08/18 02:13:37;;;;;;;28.43;18.73;;;17.70;99.90;;;;;;5045221;28;20179;-80
2023/08/18 02:16:03;;;;;;;29.93;19.83;;;17.70;99.90;;;;;;5055359;28;20194;-80
2023/08/18 02:18:29;;;;;;;31.87;19.43;;;17.70;99.90;;;;;;5062142;28;20606;-80
2023/08/18 02:20:59;;;;;;;33.27;20.33;;;17.70;99.90;;;;;;5065081;28;20608;-80
2023/08/18 02:23:25;;;;;;;29.17;19.50;;;17.70;99.90;;;;;;5065632;28;20159;-80
2023/08/18 02:25:51;;;;;;;30.93;21.03;;;17.70;99.90;;;;;;5064878;28;20560;-80
2023/08/18 02:28:19;;;;;;;31.40;19.67;;;17.70;99.90;;;;;;5064318;28;20192;-80
2023/08/18 02:30:45;;;;;;;30.27;17.63;;;17.90;99.90;;;;;;5062622;28;20207;-80
2023/08/18 02:33:10;;;;;;;28.33;18.80;;;17.70;99.90;;;;;;5064290;28;20179;-80
2023/08/18 02:35:36;;;;;;;23.67;16.47;;;17.70;99.90;;;;;;5063472;28;20191;-81
2023/08/18 02:38:01;;;;;;;27.00;18.87;;;17.80;99.90;;;;;;5062057;28;20200;-80
2023/08/18 02:40:27;;;;;;;27.23;18.03;;;17.70;99.90;;;;;;5062793;28;20206;-80
2023/08/18 02:42:52;;;;;;;26.40;16.83;;;17.60;99.90;;;;;;5061949;28;20514;-79
2023/08/18 02:45:18;;;;;;;25.40;15.57;;;17.80;99.90;;;;;;5065101;28;20278;-80
2023/08/18 02:47:44;;;;;;;22.37;14.33;;;17.70;99.90;;;;;;5057505;28;20187;-80
2023/08/18 02:50:10;;;;;;;21.20;14.40;;;17.70;99.90;;;;;;5064330;28;20174;-80
2023/08/18 02:52:35;;;;;;;21.27;14.83;;;17.70;99.90;;;;;;5062441;28;20207;-80
2023/08/18 02:55:01;;;;;;;22.97;15.33;;;17.70;99.90;;;;;;5064885;28;20180;-80
2023/08/18 02:57:26;;;;;;;20.37;13.60;;;17.70;99.90;;;;;;5063248;28;20260;-80
2023/08/18 02:59:52;;;;;;;20.67;14.50;;;17.70;99.90;;;;;;5063794;28;20168;-80
2023/08/18 03:02:18;;;;;;;22.23;14.53;;;17.70;99.90;;;;;;5067114;28;20196;-80
2023/08/18 03:04:43;;;;;;;21.90;14.90;;;17.60;99.90;;;;;;5062052;28;20224;-80
2023/08/18 03:07:09;;;;;;;21.30;13.20;;;17.90;99.90;;;;;;5068789;28;20551;-80
2023/08/18 03:09:34;;;;;;;23.73;16.00;;;17.80;99.90;;;;;;5068628;28;20172;-80
2023/08/18 03:12:00;;;;;;;21.10;14.83;;;17.90;99.90;;;;;;5068676;28;20243;-80
2023/08/18 03:14:25;;;;;;;24.47;16.07;;;17.70;99.90;;;;;;5068193;28;20180;-80
2023/08/18 03:16:51;;;;;;;25.47;16.77;;;17.70;99.90;;;;;;5065638;28;20289;-80
2023/08/18 03:19:18;;;;;;;23.67;16.60;;;17.70;99.90;;;;;;5065686;28;20180;-80
2023/08/18 03:21:43;;;;;;;21.93;16.20;;;17.70;99.90;;;;;;5067466;28;20191;-80
2023/08/18 03:24:09;;;;;;;21.07;15.90;;;17.70;99.90;;;;;;5067818;28;20191;-80
2023/08/18 03:26:34;;;;;;;23.33;16.43;;;17.70;99.90;;;;;;5068938;28;20251;-80
2023/08/18 03:29:00;;;;;;;23.00;17.30;;;17.70;99.90;;;;;;5068732;28;20182;-79
2023/08/18 03:31:26;;;;;;;21.93;15.63;;;17.80;99.90;;;;;;5069159;28;20179;-80
2023/08/18 03:33:52;;;;;;;25.53;17.83;;;17.70;99.90;;;;;;5069324;28;20167;-79
2023/08/18 03:36:18;;;;;;;23.43;17.17;;;17.80;99.90;;;;;;5055223;28;20241;-79
2023/08/18 03:38:43;;;;;;;23.77;17.43;;;17.90;99.90;;;;;;5047200;28;20250;-80
2023/08/18 03:41:09;;;;;;;26.83;18.13;;;17.90;99.90;;;;;;5048052;28;20180;-79
2023/08/18 03:43:35;;;;;;;27.83;18.33;;;17.80;99.90;;;;;;5047002;28;20663;-79
2023/08/18 03:46:16;;;;;;;24.57;17.07;;;17.70;99.90;;;;;;5047373;28;20180;-79
2023/08/18 03:48:41;;;;;;;30.97;19.93;;;17.80;99.90;;;;;;5047667;28;20168;-80
2023/08/18 03:51:07;;;;;;;30.37;18.77;;;17.80;99.90;;;;;;5046691;28;20204;-80
2023/08/18 03:53:32;;;;;;;23.87;18.00;;;17.80;99.90;;;;;;5046568;28;20172;-80
2023/08/18 03:55:59;;;;;;;25.33;17.87;;;17.80;99.90;;;;;;5046850;28;20173;-80
2023/08/18 03:58:25;;;;;;;26.10;17.63;;;17.80;99.90;;;;;;5046733;28;20204;-79
2023/08/18 04:00:56;;;;;;;29.03;17.63;;;17.80;99.90;;;;;;5066059;28;20192;-80
2023/08/18 04:03:22;;;;;;;25.73;18.17;;;17.80;99.90;;;;;;5066119;28;20148;-79
2023/08/18 04:05:47;;;;;;;24.47;17.10;;;17.80;99.90;;;;;;5066146;28;20171;-79
2023/08/18 04:08:15;;;;;;;25.00;17.77;;;17.80;99.90;;;;;;5066701;28;20182;-79
2023/08/18 04:10:41;;;;;;;25.70;17.63;;;17.80;99.90;;;;;;5048338;28;20200;-80
2023/08/18 04:13:06;;;;;;;27.90;16.53;;;17.80;99.90;;;;;;5046685;28;20172;-80
2023/08/18 04:15:32;;;;;;;23.27;16.80;;;17.90;99.90;;;;;;5046202;28;20172;-80
2023/08/18 04:17:57;;;;;;;25.73;16.77;;;17.70;99.90;;;;;;5043613;28;20254;-81
2023/08/18 04:20:23;;;;;;;26.50;16.63;;;17.80;99.90;;;;;;5043080;28;20199;-80
2023/08/18 04:22:48;;;;;;;27.07;19.13;;;17.80;99.90;;;;;;5043882;28;20188;-81
2023/08/18 04:25:14;;;;;;;24.47;16.63;;;17.80;99.90;;;;;;5046403;28;20255;-80
2023/08/18 04:27:40;;;;;;;26.60;17.13;;;17.80;99.90;;;;;;5046119;28;20168;-81
2023/08/18 04:30:06;;;;;;;22.53;16.70;;;17.80;99.90;;;;;;5045822;28;20172;-81
2023/08/18 04:32:32;;;;;;;25.60;17.43;;;17.80;99.90;;;;;;5043815;28;20234;-81
2023/08/18 04:34:59;;;;;;;25.60;17.70;;;17.80;99.90;;;;;;5046169;28;20172;-81
2023/08/18 04:37:24;;;;;;;25.23;17.53;;;17.80;99.90;;;;;;5045936;28;20207;-81
2023/08/18 04:39:52;;;;;;;28.90;17.70;;;17.80;99.90;;;;;;5045942;28;20180;-81
2023/08/18 04:42:17;;;;;;;23.07;17.30;;;17.90;99.90;;;;;;5064528;28;20218;-81
2023/08/18 04:44:43;;;;;;;25.40;17.17;;;17.90;99.90;;;;;;5066545;28;20168;-80
2023/08/18 04:47:08;;;;;;;22.43;17.63;;;17.80;99.90;;;;;;5065917;28;20635;-81
2023/08/18 04:49:34;;;;;;;25.13;17.47;;;17.90;99.90;;;;;;5066351;28;20206;-81
2023/08/18 04:51:59;;;;;;;25.67;17.97;;;17.90;99.90;;;;;;5064316;28;20196;-80
2023/08/18 04:54:25;;;;;;;25.40;17.70;;;17.90;99.90;;;;;;5066151;28;20179;-80
2023/08/18 04:56:58;;;;;;;29.17;18.70;;;17.80;99.90;;;;;;5044709;28;20200;-81
2023/08/18 04:59:23;;;;;;;28.17;18.50;;;17.90;99.90;;;;;;5044802;28;20184;-80
2023/08/18 05:01:51;;;;;;;27.03;17.93;;;17.90;99.90;;;;;;5046900;28;20191;-81
2023/08/18 05:04:17;;;;;;;25.90;16.73;;;17.80;99.90;;;;;;5042636;28;20224;-79
2023/08/18 05:06:43;;;;;;;24.37;16.80;;;17.90;99.90;;;;;;5039502;28;20180;-79
2023/08/18 05:09:08;;;;;;;26.90;16.30;;;17.90;99.90;;;;;;5038889;28;20672;-79
2023/08/18 05:11:34;;;;;;;20.97;15.53;;;17.90;99.90;;;;;;5041891;28;20196;-81
2023/08/18 05:14:00;;;;;;;25.40;17.27;;;18.00;99.90;;;;;;5042221;28;20188;-82
2023/08/18 05:16:25;;;;;;;26.43;17.57;;;18.00;99.90;;;;;;5058895;28;20176;-81
2023/08/18 05:18:51;;;;;;;24.80;17.20;;;18.10;99.90;;;;;;5044545;28;20226;-81
2023/08/18 05:21:16;;;;;;;25.47;17.07;;;17.90;99.90;;;;;;5058577;28;20196;-81
2023/08/18 05:23:42;;;;;;;24.50;16.40;;;17.90;99.90;;;;;;5057548;28;20176;-81
2023/08/18 05:26:07;;;;;;;23.40;16.60;;;18.00;99.90;;;;;;5039335;28;20180;-81
2023/08/18 05:28:33;;;;;;;25.37;17.37;;;17.90;99.90;;;;;;5056334;28;20553;-81
2023/08/18 05:30:59;;;;;;;24.33;16.00;;;18.10;99.90;;;;;;5061749;28;20199;-81
2023/08/18 05:33:24;;;;;;;22.10;16.77;;;18.00;99.90;;;;;;5062038;28;20191;-81
2023/08/18 05:35:50;;;;;;;30.70;19.47;;;18.00;99.90;;;;;;5062189;28;20186;-81
2023/08/18 05:38:16;;;;;;;25.83;17.63;;;17.90;99.90;;;;;;5060946;28;20405;-81
2023/08/18 05:40:46;;;;;;;27.90;19.97;;;18.00;99.90;;;;;;5062636;28;20674;-81
2023/08/18 05:43:13;;;;;;;33.37;20.07;;;18.00;99.90;;;;;;5058374;28;20179;-81
2023/08/18 05:45:39;;;;;;;29.20;20.40;;;18.00;99.90;;;;;;5046521;28;20177;-81
2023/08/18 05:48:06;;;;;;;29.07;19.90;;;18.00;99.90;;;;;;5041764;28;20302;-81
2023/08/18 05:50:32;;;;;;;33.10;20.77;;;18.00;99.90;;;;;;5060251;28;20182;-81
2023/08/18 05:52:58;;;;;;;27.43;20.27;;;18.10;99.90;;;;;;5062308;28;20210;-82
2023/08/18 05:55:25;;;;;;;33.90;22.27;;;18.00;99.90;;;;;;5062937;28;20180;-82
2023/08/18 05:57:51;;;;;;;29.40;22.23;;;18.10;99.90;;;;;;5068026;28;20203;-81
2023/08/18 06:00:17;;;;;;;34.73;22.93;;;18.00;99.90;;;;;;5056498;28;20188;-81
2023/08/18 06:02:43;;;;;;;29.17;20.90;;;18.00;99.90;;;;;;5040746;28;20187;-81
2023/08/18 06:05:10;;;;;;;26.47;19.80;;;18.00;99.90;;;;;;5055716;28;20270;-80
2023/08/18 06:07:36;;;;;;;26.87;19.60;;;18.20;99.90;;;;;;5039252;28;20176;-81
2023/08/18 06:10:05;;;;;;;26.93;19.10;;;18.10;99.90;;;;;;5038656;28;20283;-81
2023/08/18 06:12:31;;;;;;;28.27;20.93;;;18.10;99.90;;;;;;5039502;28;20196;-80
2023/08/18 06:14:56;;;;;;;25.90;19.60;;;18.00;99.90;;;;;;5047706;28;20187;-81
2023/08/18 06:17:22;;;;;;;27.60;19.23;;;18.10;99.90;;;;;;5058805;28;20214;-81
2023/08/18 06:19:48;;;;;;;25.30;18.33;;;18.10;99.90;;;;;;5062059;28;20178;-81
2023/08/18 06:22:13;;;;;;;25.07;18.43;;;18.10;99.90;;;;;;5060958;28;20191;-80
2023/08/18 06:24:39;;;;;;;27.73;17.57;;;18.10;99.90;;;;;;5058650;28;20680;-81
2023/08/18 06:27:05;;;;;;;24.37;18.10;;;18.10;99.90;;;;;;5057857;28;20186;-81
2023/08/18 06:29:30;;;;;;;25.17;18.20;;;18.20;99.90;;;;;;5056743;28;20223;-82
2023/08/18 06:31:56;;;;;;;23.73;17.87;;;18.10;99.90;;;;;;5057888;28;20199;-81
2023/08/18 06:34:21;;;;;;;22.13;17.23;;;18.10;99.90;;;;;;5060306;28;20176;-80
2023/08/18 06:36:47;;;;;;;23.20;18.00;;;18.10;99.90;;;;;;5062084;28;20207;-81
2023/08/18 06:39:12;;;;;;;20.63;16.40;;;18.20;99.90;;;;;;5064322;28;20172;-81
2023/08/18 06:41:39;;;;;;;20.97;16.20;;;18.20;99.90;;;;;;5062873;28;20198;-81
2023/08/18 06:44:05;;;;;;;20.80;16.40;;;18.20;99.90;;;;;;5062385;28;20175;-81
2023/08/18 06:46:31;;;;;;;21.10;15.37;;;18.20;99.90;;;;;;5056936;28;20275;-81
2023/08/18 06:48:56;;;;;;;20.60;14.90;;;18.30;99.90;;;;;;5044504;28;20173;-80
2023/08/18 06:51:22;;;;;;;17.70;14.93;;;18.30;99.90;;;;;;5041889;28;20192;-81
2023/08/18 06:53:48;;;;;;;19.73;14.40;;;18.30;99.90;;;;;;5042826;28;20212;-81
2023/08/18 06:56:13;;;;;;;21.90;15.07;;;18.30;99.90;;;;;;5043933;28;20180;-81
2023/08/18 06:58:39;;;;;;;17.93;14.17;;;18.40;99.90;;;;;;5043533;28;20227;-80
2023/08/18 07:01:04;;;;;;;17.10;14.07;;;18.20;99.90;;;;;;5043448;28;20579;-80
2023/08/18 07:03:30;;;;;;;17.23;14.33;;;18.40;99.90;;;;;;5054548;28;20187;-81
2023/08/18 07:05:57;;;;;;;18.23;13.63;;;18.40;99.90;;;;;;5070505;28;20178;-81
2023/08/18 07:08:22;;;;;;;20.33;13.50;;;18.50;99.90;;;;;;5062765;28;20206;-81
2023/08/18 07:10:48;;;;;;;17.57;13.33;;;18.40;99.90;;;;;;5060979;28;20199;-81
2023/08/18 07:13:14;;;;;;;19.23;14.37;;;18.40;99.90;;;;;;5060845;28;20350;-81
2023/08/18 07:15:39;;;;;;;17.73;13.27;;;18.50;99.90;;;;;;5056221;28;20212;-81
2023/08/18 07:18:05;;;;;;;18.63;13.17;;;18.50;99.90;;;;;;5041873;28;20266;-81
2023/08/18 07:20:31;;;;;;;18.07;13.27;;;18.60;99.90;;;;;;5057250;28;20266;-80
2023/08/18 07:22:57;;;;;;;18.27;12.80;;;18.60;99.90;;;;;;5042016;28;20225;-80
2023/08/18 07:25:23;;;;;;;17.10;11.40;;;18.60;99.90;;;;;;5041816;28;20231;-81
2023/08/18 07:27:48;;;;;;;18.43;11.43;;;18.70;99.90;;;;;;5041539;28;20180;-82
2023/08/18 07:30:14;;;;;;;14.53;12.63;;;18.70;99.90;;;;;;5040710;28;20176;-81
2023/08/18 07:32:39;;;;;;;15.07;12.20;;;18.70;99.90;;;;;;5057259;28;20196;-81
2023/08/18 07:35:08;;;;;;;15.67;10.97;;;18.80;99.90;;;;;;5061058;28;20191;-80
2023/08/18 07:37:35;;;;;;;14.97;10.90;;;18.70;99.90;;;;;;5060305;28;20223;-80
2023/08/18 07:40:00;;;;;;;14.13;10.90;;;18.60;99.90;;;;;;5060585;28;20176;-81
2023/08/18 07:42:26;;;;;;;16.40;11.10;;;18.80;99.90;;;;;;5059426;28;20203;-81
2023/08/18 07:44:51;;;;;;;12.93;10.30;;;18.80;99.90;;;;;;5055472;28;20212;-80
2023/08/18 07:47:17;;;;;;;12.93;9.77;;;18.90;99.90;;;;;;5066368;28;20211;-81
2023/08/18 07:49:42;;;;;;;13.47;10.17;;;18.90;99.90;;;;;;5060811;28;20237;-81
2023/08/18 07:52:08;;;;;;;12.80;10.43;;;19.00;99.90;;;;;;5059446;28;20303;-81
2023/08/18 07:54:33;;;;;;;16.40;11.93;;;19.00;99.90;;;;;;5059387;28;20275;-81
2023/08/18 07:56:59;;;;;;;13.63;11.13;;;18.90;99.90;;;;;;5062381;28;20199;-81
2023/08/18 07:59:24;;;;;;;13.93;10.90;;;19.10;99.90;;;;;;5058140;28;20184;-80
2023/08/18 08:01:50;;;;;;;12.17;10.40;;;19.10;99.90;;;;;;5059924;28;20687;-81
2023/08/18 08:04:15;;;;;;;10.87;9.73;;;19.10;99.90;;;;;;5059449;28;20266;-81
2023/08/18 08:06:41;;;;;;;10.97;9.47;;;19.20;99.90;;;;;;5061700;28;20179;-80
2023/08/18 08:09:07;;;;;;;14.17;9.07;;;19.30;99.90;;;;;;5062536;28;20168;-81
2023/08/18 08:11:32;;;;;;;12.13;8.57;;;19.30;99.90;;;;;;5062236;28;20643;-81
2023/08/18 08:13:58;;;;;;;15.43;10.77;;;19.40;99.90;;;;;;5061371;28;20185;-81
2023/08/18 08:16:23;;;;;;;11.07;9.07;;;19.30;99.90;;;;;;5041730;28;20648;-81
2023/08/18 08:18:49;;;;;;;10.00;7.90;;;19.30;99.90;;;;;;5041598;28;20211;-80
2023/08/18 08:21:15;;;;;;;9.57;7.83;;;19.30;99.90;;;;;;5041745;28;20227;-80
2023/08/18 08:23:41;;;;;;;11.30;8.10;;;19.50;99.90;;;;;;5041497;28;20169;-80
2023/08/18 08:26:07;;;;;;;8.57;7.57;;;19.40;99.90;;;;;;5041637;28;20184;-81
2023/08/18 08:28:33;;;;;;;8.87;7.93;;;19.50;99.90;;;;;;5006023;28;1067005;-80
2023/08/18 08:30:59;;;;;;;11.70;7.90;;;19.50;99.90;;;;;;5045408;28;20203;-79
2023/08/18 08:33:24;;;;;;;8.50;7.30;;;19.70;99.90;;;;;;5060323;28;20617;-80
2023/08/18 08:35:51;;;;;;;9.63;7.53;;;19.70;99.90;;;;;;5060285;28;20675;-79
2023/08/18 08:38:17;;;;;;;8.77;7.63;;;19.80;99.90;;;;;;5059899;28;20274;-80
2023/08/18 08:40:42;;;;;;;6.70;6.03;;;19.80;99.90;;;;;;5060313;28;20202;-79
2023/08/18 08:43:09;;;;;;;8.13;6.87;;;19.80;99.90;;;;;;5060132;28;20182;-80
2023/08/18 08:45:35;;;;;;;7.20;6.40;;;19.90;99.90;;;;;;5060369;28;20179;-80
2023/08/18 08:48:06;;;;;;;7.03;6.30;;;20.20;99.90;;;;;;5058737;28;20624;-79
2023/08/18 08:50:37;;;;;;;7.17;6.07;;;20.10;99.90;;;;;;5059496;28;20630;-79
2023/08/18 08:53:05;;;;;;;7.57;4.97;;;20.10;99.90;;;;;;5059503;28;20170;-80
2023/08/18 08:55:36;;;;;;;7.80;6.80;;;20.20;99.90;;;;;;5059668;28;20175;-79
2023/08/18 08:58:02;;;;;;;7.47;5.90;;;20.30;99.90;;;;;;5059613;28;20226;-79
2023/08/18 09:00:29;;;;;;;8.30;7.37;;;20.30;99.90;;;;;;5059238;28;20241;-79
2023/08/18 09:03:02;;;;;;;8.13;5.57;;;20.20;99.90;;;;;;5059600;28;20168;-79
2023/08/18 09:05:30;;;;;;;7.53;6.37;;;20.30;99.90;;;;;;5059566;28;20152;-80
2023/08/18 09:07:55;;;;;;;6.60;5.87;;;20.20;99.90;;;;;;5059192;28;20683;-79
2023/08/18 09:10:21;;;;;;;6.57;5.90;;;20.30;99.90;;;;;;5057463;28;20183;-80
2023/08/18 09:12:47;;;;;;;6.80;6.10;;;20.60;99.90;;;;;;5072122;28;20214;-80
2023/08/18 09:15:12;;;;;;;7.40;6.43;;;20.50;99.90;;;;;;5058758;28;20176;-80
2023/08/18 09:17:38;;;;;;;7.43;6.00;;;20.60;99.90;;;;;;5059014;28;20206;-80
2023/08/18 09:20:04;;;;;;;8.30;6.13;;;20.80;99.90;;;;;;5057951;28;20199;-80
2023/08/18 09:22:30;;;;;;;6.50;5.90;;;20.60;99.90;;;;;;5058209;28;20282;-80
2023/08/18 09:24:56;;;;;;;6.97;5.80;;;20.60;99.90;;;;;;5057416;28;20218;-79
2023/08/18 09:27:22;;;;;;;5.50;5.00;;;20.60;99.90;;;;;;5059155;28;20176;-82
2023/08/18 09:29:48;;;;;;;6.87;5.23;;;20.60;99.90;;;;;;5063881;28;20281;-80
2023/08/18 09:32:14;;;;;;;10.67;5.83;;;20.60;99.90;;;;;;5072022;28;20183;-80
2023/08/18 09:34:46;;;;;;;5.77;5.20;;;20.60;99.90;;;;;;5061934;28;20229;-80
2023/08/18 09:37:11;;;;;;;5.40;4.90;;;20.50;99.90;;;;;;5057376;28;20290;-79
2023/08/18 09:39:37;;;;;;;7.50;5.07;;;20.80;99.90;;;;;;5058581;28;20199;-79
2023/08/18 09:42:03;;;;;;;4.67;3.80;;;20.60;99.90;;;;;;5061771;28;20554;-79
2023/08/18 09:44:29;;;;;;;4.47;4.00;;;20.80;99.90;;;;;;5058828;28;20183;-79
2023/08/18 09:46:56;;;;;;;4.47;4.07;;;20.80;99.90;;;;;;5058513;28;20187;-79
2023/08/18 09:49:23;;;;;;;5.97;5.00;;;21.00;99.90;;;;;;5058407;28;20237;-80
2023/08/18 09:52:01;;;;;;;8.13;5.37;;;20.90;99.90;;;;;;5057674;28;20675;-80
2023/08/18 09:54:28;;;;;;;5.43;3.90;;;21.30;99.90;;;;;;5059033;28;20155;-79
2023/08/18 09:57:03;;;;;;;7.07;4.53;;;21.30;99.90;;;;;;5058487;28;20172;-79
2023/08/18 09:59:37;;;;;;;5.77;4.70;;;21.40;99.90;;;;;;5057717;28;20182;-79
2023/08/18 10:02:04;;;;;;;7.23;4.00;;;21.70;99.90;;;;;;5057933;28;20218;-79
2023/08/18 10:04:41;;;;;;;5.23;4.20;;;21.70;99.90;;;;;;5063916;28;20176;-80
2023/08/18 10:07:07;;;;;;;5.53;5.03;;;21.70;99.90;;;;;;5058365;28;20515;-79
2023/08/18 10:09:33;;;;;;;5.43;4.63;;;21.70;99.90;;;;;;5057773;28;20198;-79
2023/08/18 10:12:01;;;;;;;4.77;4.37;;;21.80;99.90;;;;;;5057598;28;20191;-79
2023/08/18 10:14:28;;;;;;;6.40;4.50;;;22.00;99.90;;;;;;5053513;28;20190;-79
2023/08/18 10:16:55;;;;;;;7.83;4.43;;;22.00;99.90;;;;;;5037637;28;20168;-79
2023/08/18 10:19:49;;;;;;;6.13;4.40;;;21.90;99.90;;;;;;5037649;28;20176;-80
2023/08/18 10:22:17;;;;;;;4.60;3.87;;;22.10;99.90;;;;;;5037659;28;20214;-79
2023/08/18 10:24:46;;;;;;;4.97;4.30;;;22.20;99.90;;;;;;5037156;28;20168;-79
2023/08/18 10:27:27;;;;;;;6.70;3.80;;;22.30;99.90;;;;;;5037875;28;20239;-79
2023/08/18 10:30:19;;;;;;;4.13;3.70;;;22.50;99.90;;;;;;5052451;28;20195;-79
2023/08/18 10:32:45;;;;;;;5.00;4.60;;;22.20;99.90;;;;;;5057811;28;20681;-79
2023/08/18 10:35:25;;;;;;;7.27;4.17;;;22.40;99.90;;;;;;5056122;28;20183;-79
2023/08/18 10:37:58;;;;;;;6.40;5.07;;;22.30;99.90;;;;;;5057158;28;20671;-79
2023/08/18 10:40:37;;;;;;;5.83;5.20;;;22.40;99.90;;;;;;5059971;28;20235;-80
2023/08/18 10:43:12;;;;;;;7.07;4.90;;;22.50;99.90;;;;;;5058321;28;20192;-80
2023/08/18 10:45:39;;;;;;;5.03;4.53;;;22.50;99.90;;;;;;5057781;28;20167;-79
2023/08/18 10:48:06;;;;;;;6.13;4.93;;;22.60;99.90;;;;;;5057644;28;20186;-79
2023/08/18 10:50:36;;;;;;;5.47;4.67;;;22.60;99.90;;;;;;5056634;28;20521;-79
2023/08/18 10:53:04;;;;;;;5.53;4.80;;;22.70;99.90;;;;;;5057425;28;20176;-79
2023/08/18 10:55:30;;;;;;;6.23;4.77;;;22.80;99.90;;;;;;5056843;28;20176;-79
2023/08/18 10:57:56;;;;;;;5.87;4.60;;;22.80;99.90;;;;;;5057655;28;20207;-79
2023/08/18 11:00:22;;;;;;;5.37;4.60;;;22.90;99.90;;;;;;5057603;28;20221;-80
2023/08/18 11:02:50;;;;;;;6.20;5.60;;;23.00;99.90;;;;;;5057351;28;20176;-79
2023/08/18 11:05:18;;;;;;;5.13;4.63;;;23.00;99.90;;;;;;5057095;28;20172;-79
2023/08/18 11:07:44;;;;;;;6.37;4.90;;;23.10;99.90;;;;;;5057196;28;20203;-79
2023/08/18 11:10:19;;;;;;;6.53;5.70;;;23.20;99.90;;;;;;5056958;28;20172;-79
2023/08/18 11:12:46;;;;;;;6.67;5.57;;;23.30;99.90;;;;;;5057100;28;20167;-80
2023/08/18 11:15:12;;;;;;;6.73;6.03;;;23.30;99.90;;;;;;5057379;28;20176;-79
2023/08/18 11:17:39;;;;;;;5.90;5.40;;;23.40;99.90;;;;;;5057090;28;20245;-80
2023/08/18 11:20:11;;;;;;;6.60;6.00;;;23.40;99.90;;;;;;5055316;28;20685;-80
2023/08/18 11:22:38;;;;;;;6.53;5.90;;;23.50;99.90;;;;;;5058688;28;20199;-79
2023/08/18 11:25:05;;;;;;;7.07;6.13;;;23.60;99.90;;;;;;5059622;28;20207;-80
2023/08/18 11:27:31;;;;;;;8.27;6.27;;;23.60;99.90;;;;;;5060476;28;20179;-80
2023/08/18 11:29:58;;;;;;;6.40;5.80;;;23.70;99.90;;;;;;5060457;28;20635;-80
2023/08/18 11:32:24;;;;;;;6.27;5.67;;;23.90;99.90;;;;;;5060877;28;20215;-79
2023/08/18 11:34:50;;;;;;;6.03;5.50;;;23.80;99.90;;;;;;5060531;28;20514;-80
2023/08/18 11:37:23;;;;;;;7.70;5.73;;;24.00;99.90;;;;;;5059402;28;20203;-80
2023/08/18 11:39:48;;;;;;;6.00;5.43;;;24.00;99.90;;;;;;5060140;28;20180;-79
2023/08/18 11:42:14;;;;;;;10.50;5.63;;;24.20;99.90;;;;;;5060231;28;20237;-79
2023/08/18 11:44:40;;;;;;;6.57;5.77;;;24.00;99.90;;;;;;5059515;28;20199;-79
2023/08/18 11:47:09;;;;;;;7.13;5.83;;;24.10;99.90;;;;;;5058326;28;20652;-80
2023/08/18 11:49:35;;;;;;;6.50;5.80;;;24.10;99.90;;;;;;5059977;28;20215;-80
2023/08/18 11:52:06;;;;;;;7.40;5.47;;;24.10;99.90;;;;;;5060130;28;20202;-80
2023/08/18 11:54:34;;;;;;;8.47;6.10;;;24.10;99.90;;;;;;5060442;28;20183;-80
2023/08/18 11:57:00;;;;;;;5.80;5.30;;;24.20;99.90;;;;;;5059826;28;20171;-80
2023/08/18 11:59:26;;;;;;;7.73;6.77;;;24.20;99.90;;;;;;5059817;28;20263;-79
2023/08/18 12:01:57;;;;;;;7.03;6.37;;;24.40;99.90;;;;;;5059534;28;20234;-80
2023/08/18 12:04:27;;;;;;;10.07;6.83;;;24.50;99.90;;;;;;5059929;28;20172;-80
2023/08/18 12:06:53;;;;;;;7.37;6.63;;;24.40;99.90;;;;;;5059609;28;20582;-80
2023/08/18 12:09:20;;;;;;;7.70;6.87;;;24.50;99.90;;;;;;5057463;28;20643;-80
2023/08/18 12:11:46;;;;;;;7.80;7.00;;;24.60;99.90;;;;;;5059507;28;20196;-80
2023/08/18 12:14:11;;;;;;;7.27;6.40;;;24.80;99.90;;;;;;5059360;28;20176;-80
2023/08/18 12:16:37;;;;;;;8.90;7.03;;;24.80;99.90;;;;;;5059726;28;20171;-80
2023/08/18 12:19:06;;;;;;;8.63;7.43;;;25.00;99.90;;;;;;5057854;28;20199;-80
2023/08/18 12:21:32;;;;;;;7.83;7.10;;;24.90;99.90;;;;;;5058765;28;20199;-80
2023/08/18 12:23:59;;;;;;;7.20;6.50;;;24.90;99.90;;;;;;5059350;28;20167;-80
2023/08/18 12:26:24;;;;;;;8.83;7.37;;;24.90;99.90;;;;;;5058863;28;20225;-80
2023/08/18 12:28:50;;;;;;;8.70;7.83;;;25.00;99.90;;;;;;5058835;28;20250;-80
2023/08/18 12:31:18;;;;;;;8.67;7.77;;;24.90;99.90;;;;;;5059224;28;20206;-80